Time;durP1;ratioP1;P1;durP2;ratioP2;P2;SDS_P1;SDS_P2;PMS_P1;PMS_P2;Temp;Humidity;BMP_temperature;BMP_pressure;BME280_temperature;BME280_humidity;BME280_pressure;Samples;Min_cycle;Max_cycle;Signal;HPM_P1;HPM_P2
2022/03/18 00:00:21;;;;;;;18.23;6.05;;;;;;;;;;5072369;27;95070;-76
2022/03/18 00:02:48;;;;;;;14.93;5.47;;;;;;;;;;5072261;27;97197;-76
2022/03/18 00:05:14;;;;;;;17.05;5.63;;;;;;;;;;5072041;27;97912;-76
2022/03/18 00:07:42;;;;;;;19.55;5.95;;;;;;;;;;5071815;27;95694;-76
2022/03/18 00:10:09;;;;;;;11.13;5.40;;;;;;;;;;5072596;27;96747;-75
2022/03/18 00:12:37;;;;;;;15.73;5.53;;;;;;;;;;5073834;27;97552;-76
2022/03/18 00:15:08;;;;;;;17.67;5.90;;;;;;;;;;5071242;27;97071;-75
2022/03/18 00:17:35;;;;;;;14.38;5.50;;;;;;;;;;5071555;27;97611;-75
2022/03/18 00:20:01;;;;;;;20.90;5.47;;;;;;;;;;5072095;27;95419;-76
2022/03/18 00:22:28;;;;;;;22.15;5.88;;;;;;;;;;5058303;27;96620;-76
2022/03/18 00:24:54;;;;;;;14.18;5.35;;;;;;;;;;5063606;27;97274;-76
2022/03/18 00:27:20;;;;;;;15.27;5.20;;;;;;;;;;5071999;27;95333;-76
2022/03/18 00:29:46;;;;;;;14.02;5.75;;;;;;;;;;5071316;27;96869;-76
2022/03/18 00:32:13;;;;;;;14.90;4.75;;;;;;;;;;5072138;27;97321;-76
2022/03/18 00:34:39;;;;;;;12.35;4.97;;;;;;;;;;5073672;27;95544;-75
2022/03/18 00:37:07;;;;;;;21.23;6.22;;;;;;;;;;5069732;27;97393;-75
2022/03/18 00:39:33;;;;;;;19.85;5.65;;;;;;;;;;5070914;27;96937;-75
2022/03/18 00:41:59;;;;;;;12.13;4.82;;;;;;;;;;5071371;27;96895;-76
2022/03/18 00:44:25;;;;;;;14.00;5.35;;;;;;;;;;5066246;27;96040;-76
2022/03/18 00:46:53;;;;;;;16.15;5.75;;;;;;;;;;5051446;27;95263;-75
2022/03/18 00:52:05;;;;;;;15.27;6.18;;;;;;;;;;5050647;27;97282;-76
2022/03/18 00:54:32;;;;;;;13.93;5.88;;;;;;;;;;5054844;27;95304;-76
2022/03/18 00:56:59;;;;;;;13.23;5.30;;;;;;;;;;5072424;27;95727;-76
2022/03/18 00:59:25;;;;;;;17.40;5.65;;;;;;;;;;5071739;27;95327;-76
2022/03/18 01:01:52;;;;;;;12.80;5.20;;;;;;;;;;5071793;27;95598;-75
2022/03/18 01:04:20;;;;;;;13.82;5.78;;;;;;;;;;5067641;27;96302;-76
2022/03/18 01:06:47;;;;;;;14.77;5.05;;;;;;;;;;5050988;27;95893;-75
2022/03/18 01:09:14;;;;;;;14.63;4.95;;;;;;;;;;5050765;27;97336;-76
2022/03/18 01:11:40;;;;;;;16.17;4.97;;;;;;;;;;5050436;27;97269;-76
2022/03/18 01:14:06;;;;;;;13.55;5.85;;;;;;;;;;5066157;27;95454;-76
2022/03/18 01:16:33;;;;;;;17.65;5.55;;;;;;;;;;5070974;27;96830;-76
2022/03/18 01:18:59;;;;;;;19.25;6.10;;;;;;;;;;5073682;27;97568;-75
2022/03/18 01:21:26;;;;;;;13.40;5.50;;;;;;;;;;5071781;27;97377;-76
2022/03/18 01:23:52;;;;;;;13.60;5.35;;;;;;;;;;5071377;27;97395;-76
2022/03/18 01:26:18;;;;;;;17.67;5.82;;;;;;;;;;5055060;27;95314;-76
2022/03/18 01:28:45;;;;;;;16.65;5.90;;;;;;;;;;5050709;27;96797;-76
2022/03/18 01:31:11;;;;;;;16.42;5.65;;;;;;;;;;5070706;27;97703;-75
2022/03/18 01:33:37;;;;;;;15.43;5.28;;;;;;;;;;5070836;27;95337;-75
2022/03/18 01:36:04;;;;;;;23.02;6.07;;;;;;;;;;5070193;27;95672;-75
2022/03/18 01:38:30;;;;;;;16.08;4.57;;;;;;;;;;5074156;27;97389;-75
2022/03/18 01:40:57;;;;;;;15.05;5.10;;;;;;;;;;5070807;27;97164;-75
2022/03/18 01:43:23;;;;;;;17.95;5.10;;;;;;;;;;5070847;27;97486;-74
2022/03/18 01:45:51;;;;;;;9.85;4.72;;;;;;;;;;5069317;27;95393;-75
2022/03/18 01:48:18;;;;;;;17.50;5.07;;;;;;;;;;5063906;27;96463;-75
2022/03/18 01:50:45;;;;;;;14.07;4.63;;;;;;;;;;5070473;27;96833;-75
2022/03/18 01:53:11;;;;;;;12.57;4.63;;;;;;;;;;5070275;27;95781;-75
2022/03/18 01:55:37;;;;;;;15.60;4.60;;;;;;;;;;5066979;27;96789;-75
2022/03/18 01:58:04;;;;;;;10.85;4.65;;;;;;;;;;5049682;27;97111;-75
2022/03/18 02:00:30;;;;;;;13.05;4.38;;;;;;;;;;5053232;27;95327;-75
2022/03/18 02:02:57;;;;;;;11.15;4.50;;;;;;;;;;5050077;27;97284;-75
2022/03/18 02:05:24;;;;;;;20.95;5.40;;;;;;;;;;5051122;27;95214;-75
2022/03/18 02:07:50;;;;;;;14.82;5.00;;;;;;;;;;5029423;27;96933;-76
2022/03/18 02:10:17;;;;;;;12.77;4.82;;;;;;;;;;5029549;28;97125;-75
2022/03/18 02:12:43;;;;;;;12.13;4.63;;;;;;;;;;5022097;27;96095;-75
2022/03/18 02:15:15;;;;;;;20.52;5.00;;;;;;;;;;5016837;28;95899;-75
2022/03/18 02:17:41;;;;;;;14.38;5.00;;;;;;;;;;5029401;27;98322;-75
2022/03/18 02:20:08;;;;;;;18.30;5.28;;;;;;;;;;5029434;28;95460;-75
2022/03/18 02:22:35;;;;;;;16.35;4.50;;;;;;;;;;5046110;27;96813;-75
2022/03/18 02:25:02;;;;;;;13.68;4.63;;;;;;;;;;5029260;27;95387;-75
2022/03/18 02:27:28;;;;;;;20.90;5.88;;;;;;;;;;5029163;27;96862;-74
2022/03/18 02:29:54;;;;;;;16.17;5.03;;;;;;;;;;5028894;28;97311;-75
2022/03/18 02:32:21;;;;;;;13.48;4.55;;;;;;;;;;5029526;27;95244;-74
2022/03/18 02:34:47;;;;;;;20.92;5.50;;;;;;;;;;5026477;28;96419;-74
2022/03/18 02:37:14;;;;;;;11.90;5.75;;;;;;;;;;5028739;27;97426;-74
2022/03/18 02:39:40;;;;;;;13.35;4.95;;;;;;;;;;5027785;28;95288;-77
2022/03/18 02:42:07;;;;;;;13.95;5.50;;;;;;;;;;5025384;28;96810;-76
2022/03/18 02:44:33;;;;;;;11.95;4.50;;;;;;;;;;5011781;28;97655;-75
2022/03/18 02:46:59;;;;;;;16.08;4.68;;;;;;;;;;5009105;28;96980;-76
2022/03/18 02:49:26;;;;;;;13.57;5.40;;;;;;;;;;5039710;27;97671;-76
2022/03/18 02:51:52;;;;;;;11.25;5.18;;;;;;;;;;5028737;27;95462;-75
2022/03/18 02:54:19;;;;;;;14.18;4.47;;;;;;;;;;5028956;27;95563;-76
2022/03/18 02:56:45;;;;;;;12.32;4.38;;;;;;;;;;5028565;28;97667;-75
2022/03/18 02:59:12;;;;;;;13.88;4.35;;;;;;;;;;5028854;27;96021;-75
2022/03/18 03:01:38;;;;;;;11.80;4.25;;;;;;;;;;5029191;28;96849;-75
2022/03/18 03:04:05;;;;;;;18.65;4.40;;;;;;;;;;5011781;27;97339;-76
2022/03/18 03:09:16;;;;;;;13.68;4.28;;;;;;;;;;5069337;27;97142;-76
2022/03/18 03:11:46;;;;;;;10.55;4.10;;;;;;;;;;5069285;27;96039;-76
2022/03/18 03:14:12;;;;;;;11.68;4.80;;;;;;;;;;5068810;27;96967;-75
2022/03/18 03:16:39;;;;;;;13.82;4.32;;;;;;;;;;5068094;27;97343;-75
2022/03/18 03:19:05;;;;;;;10.13;4.00;;;;;;;;;;5069067;27;95538;-75
2022/03/18 03:21:34;;;;;;;13.10;4.55;;;;;;;;;;5069599;27;96855;-74
2022/03/18 03:24:01;;;;;;;14.00;3.63;;;;;;;;;;5069258;27;97820;-75
2022/03/18 03:26:28;;;;;;;9.73;3.72;;;;;;;;;;5069016;27;96104;-75
2022/03/18 03:28:54;;;;;;;16.30;4.10;;;;;;;;;;5075007;27;96857;-75
2022/03/18 03:31:20;;;;;;;13.02;3.90;;;;;;;;;;5066878;27;95698;-75
2022/03/18 03:33:47;;;;;;;11.27;3.80;;;;;;;;;;5052427;27;96656;-74
2022/03/18 03:36:13;;;;;;;8.18;3.67;;;;;;;;;;5052153;27;97362;-75
2022/03/18 03:38:39;;;;;;;10.48;4.15;;;;;;;;;;5052137;27;95281;-74
2022/03/18 03:41:06;;;;;;;10.73;4.18;;;;;;;;;;5052331;27;96916;-74
2022/03/18 03:43:32;;;;;;;11.88;4.05;;;;;;;;;;5053009;27;97328;-75
2022/03/18 03:45:58;;;;;;;10.40;4.63;;;;;;;;;;5051493;27;95226;-75
2022/03/18 03:48:25;;;;;;;15.60;4.38;;;;;;;;;;5055485;27;95913;-74
2022/03/18 03:50:51;;;;;;;12.10;4.22;;;;;;;;;;5064018;27;95334;-75
2022/03/18 03:53:17;;;;;;;22.48;5.85;;;;;;;;;;5071504;27;96936;-75
2022/03/18 03:55:43;;;;;;;13.27;4.72;;;;;;;;;;5069976;27;96241;-75
2022/03/18 03:58:10;;;;;;;12.35;4.53;;;;;;;;;;5072381;27;95246;-75
2022/03/18 04:00:37;;;;;;;18.55;3.97;;;;;;;;;;5072318;27;96600;-74
2022/03/18 04:03:04;;;;;;;11.57;4.03;;;;;;;;;;5056801;27;97356;-74
2022/03/18 04:05:34;;;;;;;16.17;4.57;;;;;;;;;;5050561;27;95855;-74
2022/03/18 04:08:01;;;;;;;18.77;4.93;;;;;;;;;;5051509;27;96839;-75
2022/03/18 04:10:27;;;;;;;12.68;5.13;;;;;;;;;;5055216;27;97842;-74
2022/03/18 04:12:54;;;;;;;13.38;4.43;;;;;;;;;;5062560;27;97035;-74
2022/03/18 04:15:21;;;;;;;10.70;4.40;;;;;;;;;;5071317;27;97521;-75
2022/03/18 04:17:48;;;;;;;12.45;4.20;;;;;;;;;;5072634;27;95695;-74
2022/03/18 04:20:16;;;;;;;11.75;4.10;;;;;;;;;;5071883;27;96982;-75
2022/03/18 04:22:43;;;;;;;14.75;4.95;;;;;;;;;;5062625;27;97312;-74
2022/03/18 04:25:10;;;;;;;15.07;4.70;;;;;;;;;;5051317;27;95637;-75
2022/03/18 04:27:37;;;;;;;13.02;4.70;;;;;;;;;;5051917;27;96852;-75
2022/03/18 04:30:04;;;;;;;18.23;4.93;;;;;;;;;;5050998;27;97685;-77
2022/03/18 04:32:31;;;;;;;22.08;4.72;;;;;;;;;;5061533;27;95195;-77
2022/03/18 04:34:57;;;;;;;15.60;4.32;;;;;;;;;;5071479;27;97168;-75
2022/03/18 04:37:24;;;;;;;13.65;4.22;;;;;;;;;;5072028;27;95316;-75
2022/03/18 04:39:50;;;;;;;13.30;4.47;;;;;;;;;;5071507;27;97115;-76
2022/03/18 04:42:17;;;;;;;9.48;4.10;;;;;;;;;;5068912;27;97540;-76
2022/03/18 04:44:43;;;;;;;19.95;4.25;;;;;;;;;;5051704;27;95715;-76
2022/03/18 04:47:10;;;;;;;13.70;4.28;;;;;;;;;;5051471;27;96804;-75
2022/03/18 04:49:37;;;;;;;10.48;3.67;;;;;;;;;;5050787;27;97160;-75
2022/03/18 04:52:03;;;;;;;10.65;3.70;;;;;;;;;;5060270;27;96149;-76
2022/03/18 04:54:29;;;;;;;12.18;4.25;;;;;;;;;;5073205;27;96885;-76
2022/03/18 04:59:41;;;;;;;14.93;4.60;;;;;;;;;;5071820;27;95737;-76
2022/03/18 05:02:14;;;;;;;9.93;3.83;;;;;;;;;;5062940;27;97912;-76
2022/03/18 05:04:44;;;;;;;9.90;4.10;;;;;;;;;;5071233;27;95447;-75
2022/03/18 05:07:11;;;;;;;15.98;4.63;;;;;;;;;;5070342;27;98029;-76
2022/03/18 05:09:38;;;;;;;14.02;4.30;;;;;;;;;;5070700;27;97590;-76
2022/03/18 05:12:06;;;;;;;12.60;4.07;;;;;;;;;;5068821;27;95168;-76
2022/03/18 18:25:50;;;;;;;17.63;7.15;;;;;;;;;;5064269;27;1278781;-76
2022/03/18 18:28:17;;;;;;;22.20;6.88;;;;;;;;;;5076386;27;97340;-76
2022/03/18 18:30:44;;;;;;;16.75;7.18;;;;;;;;;;5086398;27;95345;-77
2022/03/18 18:33:10;;;;;;;16.20;7.47;;;;;;;;;;5086010;27;97261;-76
2022/03/18 18:35:36;;;;;;;12.57;6.70;;;;;;;;;;5069894;27;97307;-76
2022/03/18 18:38:03;;;;;;;18.77;7.50;;;;;;;;;;5076158;27;96123;-76
2022/03/18 18:40:30;;;;;;;23.25;8.35;;;;;;;;;;5086183;27;96651;-76
2022/03/18 18:43:01;;;;;;;18.52;6.50;;;;;;;;;;5081961;27;97355;-77
2022/03/18 18:45:27;;;;;;;17.40;7.43;;;;;;;;;;5069056;27;95151;-77
2022/03/18 18:47:54;;;;;;;18.05;6.93;;;;;;;;;;5069646;27;97362;-76
2022/03/18 18:50:20;;;;;;;21.58;8.10;;;;;;;;;;5083755;27;95702;-76
2022/03/18 18:52:46;;;;;;;22.80;9.15;;;;;;;;;;5085680;27;96652;-76
2022/03/18 18:55:13;;;;;;;28.85;7.60;;;;;;;;;;5084774;27;97672;-76
2022/03/18 18:57:39;;;;;;;20.75;7.88;;;;;;;;;;5086330;27;95711;-76
2022/03/18 19:00:07;;;;;;;22.40;8.73;;;;;;;;;;5083640;27;96909;-76
2022/03/18 19:02:33;;;;;;;18.52;7.70;;;;;;;;;;5065665;27;97240;-76
2022/03/18 19:05:08;;;;;;;15.85;8.15;;;;;;;;;;5073446;27;95693;-76
2022/03/18 19:07:34;;;;;;;16.75;6.80;;;;;;;;;;5088848;27;96766;-76
2022/03/18 19:10:01;;;;;;;16.52;7.72;;;;;;;;;;5085444;27;95780;-76
2022/03/18 19:12:27;;;;;;;17.90;8.77;;;;;;;;;;5086218;27;96915;-75
2022/03/18 19:14:54;;;;;;;18.45;8.68;;;;;;;;;;5084109;27;97292;-76
2022/03/18 19:17:20;;;;;;;16.05;7.95;;;;;;;;;;5085686;27;95411;-77
2022/03/18 19:19:48;;;;;;;20.02;7.97;;;;;;;;;;5085969;27;96838;-77
2022/03/18 19:22:14;;;;;;;18.42;8.40;;;;;;;;;;5084733;27;97194;-77
2022/03/18 19:24:42;;;;;;;21.52;8.65;;;;;;;;;;5085763;27;95702;-77
2022/03/18 19:27:10;;;;;;;23.40;9.88;;;;;;;;;;5085325;27;96802;-77
2022/03/18 19:29:37;;;;;;;25.50;10.75;;;;;;;;;;5088449;27;97290;-77
2022/03/18 19:34:56;;;;;;;18.20;9.30;;;;;;;;;;5084759;27;98183;-76
2022/03/18 19:37:22;;;;;;;20.08;8.48;;;;;;;;;;5070610;27;95824;-77
2022/03/18 19:39:49;;;;;;;14.82;7.15;;;;;;;;;;5070464;27;96967;-77
2022/03/18 19:42:16;;;;;;;17.35;7.97;;;;;;;;;;5070375;27;97344;-76
2022/03/18 19:44:42;;;;;;;22.48;9.18;;;;;;;;;;5065703;27;96961;-77
2022/03/18 19:47:08;;;;;;;15.77;8.05;;;;;;;;;;5051379;27;96995;-77
2022/03/18 19:49:35;;;;;;;15.23;6.47;;;;;;;;;;5051896;27;97777;-77
2022/03/18 19:52:03;;;;;;;16.55;6.82;;;;;;;;;;5072361;27;95307;-77
2022/03/18 19:54:29;;;;;;;15.75;6.90;;;;;;;;;;5071006;27;97379;-77
2022/03/18 20:02:26;;;;;;;16.95;8.50;;;;;;;;;;5071396;27;97347;-76
2022/03/18 20:04:53;;;;;;;15.77;7.80;;;;;;;;;;5070717;27;95251;-76
2022/03/18 20:07:20;;;;;;;16.80;7.97;;;;;;;;;;5071576;27;96762;-76
2022/03/18 20:09:47;;;;;;;19.15;9.88;;;;;;;;;;5071217;27;97296;-76
2022/03/18 20:12:14;;;;;;;16.48;8.68;;;;;;;;;;5070517;27;95586;-76
2022/03/18 20:14:40;;;;;;;24.10;11.55;;;;;;;;;;5073729;27;97057;-76
2022/03/18 20:17:11;;;;;;;23.55;11.52;;;;;;;;;;5058968;27;95709;-76
2022/03/18 20:19:44;;;;;;;19.58;9.07;;;;;;;;;;5070292;27;97005;-76
2022/03/18 20:22:10;;;;;;;19.25;9.73;;;;;;;;;;5070974;27;97266;-77
2022/03/18 20:24:37;;;;;;;23.30;8.18;;;;;;;;;;5070961;27;95792;-76
2022/03/18 20:27:04;;;;;;;20.08;7.95;;;;;;;;;;5070670;27;97055;-76
2022/03/18 20:29:31;;;;;;;19.23;7.85;;;;;;;;;;5071380;27;97329;-76
2022/03/18 20:31:59;;;;;;;17.17;7.95;;;;;;;;;;5071184;27;96480;-76
2022/03/18 20:34:25;;;;;;;23.65;7.85;;;;;;;;;;5071327;27;96774;-77
2022/03/18 20:36:52;;;;;;;21.63;7.43;;;;;;;;;;5070868;27;95529;-77
2022/03/18 20:39:19;;;;;;;18.83;7.90;;;;;;;;;;5070048;27;96646;-77
2022/03/18 20:41:45;;;;;;;18.25;7.70;;;;;;;;;;5071520;27;97341;-76
2022/03/18 20:44:17;;;;;;;15.75;7.63;;;;;;;;;;5071979;27;95314;-77
2022/03/18 20:46:47;;;;;;;22.50;8.82;;;;;;;;;;5071362;27;97247;-77
2022/03/18 20:49:21;;;;;;;18.75;8.32;;;;;;;;;;5071194;27;96256;-75
2022/03/18 20:51:55;;;;;;;25.83;8.73;;;;;;;;;;5072322;27;95295;-75
2022/03/18 20:54:25;;;;;;;25.55;8.52;;;;;;;;;;5070811;27;96579;-75
2022/03/18 20:57:01;;;;;;;17.83;7.85;;;;;;;;;;5074106;27;96541;-77
2022/03/18 20:59:28;;;;;;;22.27;9.35;;;;;;;;;;5071119;27;96572;-77
2022/03/18 21:01:55;;;;;;;20.05;8.95;;;;;;;;;;5071958;27;95473;-77
2022/03/18 21:04:27;;;;;;;20.03;9.03;;;;;;;;;;5071851;27;95396;-77
2022/03/18 21:06:55;;;;;;;23.30;9.23;;;;;;;;;;5070974;27;96680;-76
2022/03/18 21:09:23;;;;;;;27.92;8.80;;;;;;;;;;5050290;27;96474;-77
2022/03/18 21:11:56;;;;;;;32.55;9.20;;;;;;;;;;5069898;27;95416;-76
2022/03/18 21:14:24;;;;;;;30.40;9.27;;;;;;;;;;5071152;27;96805;-76
2022/03/18 21:17:23;;;;;;;23.77;9.48;;;;;;;;;;5070592;27;98806;-76
2022/03/18 21:19:40;;;;;;;17.23;8.52;;;;;;;;;;5074922;27;95337;-76
2022/03/18 21:22:12;;;;;;;24.47;9.07;;;;;;;;;;5070002;27;96410;-78
2022/03/18 21:24:54;;;;;;;23.08;8.88;;;;;;;;;;5070677;27;95634;-77
2022/03/18 21:32:59;;;;;;;22.20;8.82;;;;;;;;;;5071095;27;95317;-76
2022/03/18 21:35:26;;;;;;;26.00;8.82;;;;;;;;;;5069373;27;96436;-77
2022/03/18 21:37:54;;;;;;;26.70;9.18;;;;;;;;;;5070730;27;97266;-75
2022/03/18 21:40:21;;;;;;;25.90;8.65;;;;;;;;;;5070632;27;95339;-76
2022/03/18 21:42:48;;;;;;;23.33;8.73;;;;;;;;;;5072712;27;96796;-76
2022/03/18 21:45:16;;;;;;;23.10;8.75;;;;;;;;;;5070564;27;95332;-76
2022/03/18 21:47:43;;;;;;;22.88;9.10;;;;;;;;;;5070738;27;96595;-76
2022/03/18 21:50:10;;;;;;;26.77;8.93;;;;;;;;;;5069770;27;97428;-77
2022/03/18 21:52:37;;;;;;;26.15;9.30;;;;;;;;;;5040621;27;95438;-78
2022/03/18 21:55:04;;;;;;;24.58;10.50;;;;;;;;;;5068230;27;96739;-77
2022/03/18 21:57:30;;;;;;;23.23;8.38;;;;;;;;;;5069240;27;97394;-77
2022/03/18 21:59:57;;;;;;;22.27;8.60;;;;;;;;;;5070455;27;95498;-78
2022/03/18 22:02:24;;;;;;;30.10;9.20;;;;;;;;;;5070848;27;98379;-78
2022/03/18 22:04:51;;;;;;;27.17;8.18;;;;;;;;;;5073062;27;96412;-77
2022/03/18 22:07:17;;;;;;;24.75;8.32;;;;;;;;;;5070323;27;97043;-77
2022/03/18 22:09:44;;;;;;;20.27;7.70;;;;;;;;;;5068994;27;97920;-77
2022/03/18 22:12:11;;;;;;;21.45;7.93;;;;;;;;;;5068345;27;95842;-77
2022/03/18 22:14:37;;;;;;;20.90;7.93;;;;;;;;;;5070324;27;96735;-77
2022/03/18 22:17:04;;;;;;;21.50;7.70;;;;;;;;;;5069342;27;97506;-78
2022/03/18 22:19:31;;;;;;;20.55;7.25;;;;;;;;;;5070751;27;95425;-77
2022/03/18 22:22:00;;;;;;;24.70;8.07;;;;;;;;;;5070217;27;96716;-77
2022/03/18 22:24:28;;;;;;;20.73;7.25;;;;;;;;;;5069355;27;97424;-78
2022/03/18 22:26:54;;;;;;;19.77;7.85;;;;;;;;;;5057693;27;95684;-77
2022/03/18 22:29:21;;;;;;;24.20;7.60;;;;;;;;;;5069531;27;97255;-77
2022/03/18 22:31:47;;;;;;;26.83;8.25;;;;;;;;;;5069890;27;95387;-77
2022/03/18 22:34:14;;;;;;;30.38;7.70;;;;;;;;;;5069179;27;97388;-77
2022/03/18 22:36:40;;;;;;;22.42;7.28;;;;;;;;;;5069386;27;96034;-78
2022/03/18 22:39:07;;;;;;;21.70;7.28;;;;;;;;;;5068403;27;95422;-77
2022/03/18 22:41:33;;;;;;;23.23;7.00;;;;;;;;;;5068769;27;97173;-77
2022/03/18 22:44:00;;;;;;;18.80;6.38;;;;;;;;;;5068689;27;97327;-78
2022/03/18 22:46:26;;;;;;;22.48;7.40;;;;;;;;;;5072331;27;95410;-78
2022/03/18 22:48:53;;;;;;;16.52;5.82;;;;;;;;;;5069028;27;97278;-77
2022/03/18 22:51:19;;;;;;;29.98;8.18;;;;;;;;;;5068955;27;95290;-77
2022/03/18 22:53:46;;;;;;;20.05;6.65;;;;;;;;;;5068953;27;96843;-78
2022/03/18 22:56:13;;;;;;;15.18;6.55;;;;;;;;;;5068466;27;97287;-78
2022/03/18 22:58:39;;;;;;;26.30;6.80;;;;;;;;;;5069092;27;95254;-77
2022/03/18 23:01:06;;;;;;;21.27;7.32;;;;;;;;;;5068833;27;96891;-77
2022/03/18 23:03:34;;;;;;;20.67;6.22;;;;;;;;;;5068690;27;97176;-77
2022/03/18 23:06:01;;;;;;;26.98;6.25;;;;;;;;;;5068473;27;95410;-74
2022/03/18 23:08:28;;;;;;;20.40;6.72;;;;;;;;;;5071677;27;97248;-74
2022/03/18 23:13:40;;;;;;;19.05;6.40;;;;;;;;;;5070769;27;96977;-76
2022/03/18 23:16:06;;;;;;;15.45;5.93;;;;;;;;;;5070575;27;97448;-76
2022/03/18 23:18:38;;;;;;;14.63;5.90;;;;;;;;;;5072363;27;95345;-77
2022/03/18 23:21:05;;;;;;;22.63;6.28;;;;;;;;;;5051379;27;96832;-77
2022/03/18 23:23:31;;;;;;;19.77;6.18;;;;;;;;;;5051370;27;97295;-77
2022/03/18 23:26:01;;;;;;;21.38;6.05;;;;;;;;;;5069446;27;95840;-77
2022/03/18 23:28:27;;;;;;;19.20;5.85;;;;;;;;;;5071993;27;96619;-77
2022/03/18 23:30:53;;;;;;;13.63;5.30;;;;;;;;;;5075459;27;97377;-77
2022/03/18 23:33:19;;;;;;;28.00;7.03;;;;;;;;;;5071826;27;96737;-76
2022/03/18 23:35:46;;;;;;;22.77;6.28;;;;;;;;;;5070897;27;97826;-77
2022/03/18 23:38:13;;;;;;;18.25;6.18;;;;;;;;;;5071533;27;96191;-76
2022/03/18 23:40:41;;;;;;;24.02;6.40;;;;;;;;;;5072341;27;96788;-77
2022/03/18 23:43:08;;;;;;;19.92;6.43;;;;;;;;;;5071087;27;97505;-77
2022/03/18 23:45:37;;;;;;;21.10;6.10;;;;;;;;;;5071961;27;95502;-78
2022/03/18 23:48:04;;;;;;;23.83;6.68;;;;;;;;;;5070510;27;96920;-77
2022/03/18 23:50:31;;;;;;;20.65;6.18;;;;;;;;;;5071502;27;97272;-78
2022/03/18 23:52:58;;;;;;;21.17;6.22;;;;;;;;;;5075346;27;95542;-77
2022/03/18 23:55:24;;;;;;;21.10;6.80;;;;;;;;;;5069327;27;97377;-78
2022/03/18 23:57:51;;;;;;;19.63;6.28;;;;;;;;;;5070614;27;95309;-77
